createdAt,value
2022-08-03T00:01:49.245Z,101082.56
2022-08-03T00:04:19.176Z,101082.00
2022-08-03T00:06:49.144Z,101076.22
2022-08-03T00:09:19.012Z,101072.44
2022-08-03T00:11:48.900Z,101069.97
2022-08-03T00:14:25.876Z,101071.28
2022-08-03T00:16:55.828Z,101071.28
2022-08-03T00:19:25.669Z,101070.47
2022-08-03T00:21:55.548Z,101062.31
2022-08-03T00:24:25.483Z,101066.94
2022-08-03T00:26:55.397Z,101061.75
2022-08-03T00:29:28.167Z,101067.75
2022-08-03T00:31:59.556Z,101061.00
2022-08-03T00:34:54.310Z,101056.66
2022-08-03T00:37:21.480Z,101056.66
2022-08-03T00:40:13.696Z,101050.66
2022-08-03T00:42:51.405Z,101056.31
2022-08-03T00:45:25.704Z,101053.03
2022-08-03T00:47:56.332Z,101045.97
2022-08-03T00:50:28.312Z,101041.03
2022-08-03T00:53:01.053Z,101046.47
2022-08-03T00:55:31.010Z,101045.41
2022-08-03T00:58:07.416Z,101043.50
2022-08-03T01:00:41.607Z,101042.94
2022-08-03T01:03:12.920Z,101043.50
2022-08-03T01:05:52.556Z,101045.66
2022-08-03T01:08:31.205Z,101037.50
2022-08-03T01:11:09.525Z,101046.72
2022-08-03T01:14:02.047Z,101036.94
2022-08-03T01:16:47.465Z,101040.47
2022-08-03T01:19:35.130Z,101030.94
2022-08-03T01:22:20.318Z,101033.63
2022-08-03T01:25:00.197Z,101021.13
2022-08-03T01:27:40.428Z,101021.59
2022-08-03T01:30:14.952Z,101023.75
2022-08-03T01:33:00.900Z,101017.19
2022-08-03T01:35:38.687Z,101017.44
2022-08-03T01:38:14.872Z,101016.03
2022-08-03T01:40:47.157Z,101020.63
2022-08-03T01:43:55.331Z,101013.81
2022-08-03T01:46:14.507Z,101017.34
2022-08-03T01:48:46.149Z,101016.78
2022-08-03T01:51:19.689Z,101014.31
2022-08-03T01:53:52.319Z,101013.75
2022-08-03T01:56:25.164Z,101013.75
2022-08-03T01:58:57.039Z,101019.97
2022-08-03T02:02:16.013Z,101015.38
2022-08-03T02:04:22.288Z,101011.28
2022-08-03T02:07:02.356Z,101008.81
2022-08-03T02:09:34.447Z,101012.00
2022-08-03T02:12:05.015Z,101018.50
2022-08-03T02:14:34.957Z,101022.28
2022-08-03T02:17:08.279Z,101021.47
2022-08-03T02:19:39.695Z,101017.94
2022-08-03T02:22:13.809Z,101015.22
2022-08-03T02:24:44.517Z,101009.78
2022-08-03T02:27:24.341Z,101010.28
2022-08-03T02:29:58.189Z,101004.88
2022-08-03T02:32:34.121Z,101006.19
2022-08-03T02:35:06.669Z,101008.06
2022-08-03T02:37:42.922Z,101016.78
2022-08-03T02:40:16.915Z,101009.22
2022-08-03T02:42:49.296Z,101015.22
2022-08-03T02:45:21.010Z,101010.63
2022-08-03T02:47:58.230Z,101017.94
2022-08-03T02:50:30.439Z,101008.16
2022-08-03T02:53:03.014Z,101014.66
2022-08-03T02:55:34.467Z,101015.72
2022-08-03T02:58:06.437Z,101017.84
2022-08-03T03:00:37.610Z,101021.38
2022-08-03T03:03:11.234Z,101022.22
2022-08-03T03:05:56.074Z,101015.38
2022-08-03T03:08:29.335Z,101016.78
2022-08-03T03:11:02.501Z,101018.69
2022-08-03T03:13:33.886Z,101015.16
2022-08-03T03:16:05.810Z,101017.84
2022-08-03T03:18:40.677Z,101017.84
2022-08-03T03:21:12.529Z,101015.16
2022-08-03T03:23:44.249Z,101018.09
2022-08-03T03:26:16.774Z,101017.53
2022-08-03T03:28:47.205Z,101024.00
2022-08-03T03:31:17.324Z,101026.69
2022-08-03T03:33:50.399Z,101019.88
2022-08-03T03:36:21.278Z,101023.66
2022-08-03T03:38:51.342Z,101023.09
2022-08-03T03:41:23.745Z,101018.13
2022-08-03T03:43:53.820Z,101024.03
2022-08-03T03:46:23.794Z,101021.81
2022-08-03T03:48:56.438Z,101017.72
2022-08-03T03:51:26.352Z,101015.81
2022-08-03T03:53:59.862Z,101017.94
2022-08-03T03:56:30.272Z,101021.72
2022-08-03T03:59:00.169Z,101013.84
2022-08-03T04:01:30.066Z,101012.19
2022-08-03T04:04:23.932Z,101016.31
2022-08-03T04:07:06.373Z,101010.41
2022-08-03T04:09:51.472Z,101007.94
2022-08-03T04:12:23.787Z,101015.81
2022-08-03T04:14:57.696Z,101018.28
2022-08-03T04:17:31.231Z,101017.47
2022-08-03T04:20:06.325Z,101014.75
2022-08-03T04:22:37.299Z,101019.59
2022-08-03T04:25:12.196Z,101024.78
2022-08-03T04:27:44.475Z,101024.03
2022-08-03T04:30:38.869Z,101014.34
2022-08-03T04:33:09.795Z,101029.53
2022-08-03T04:35:54.756Z,101023.91
2022-08-03T04:38:34.340Z,101036.72
2022-08-03T04:41:04.740Z,101026.69
2022-08-03T04:43:36.543Z,101031.41
2022-08-03T04:46:11.100Z,101033.38
2022-08-03T04:48:44.705Z,101040.53
2022-08-03T04:51:18.010Z,101033.78
2022-08-03T04:53:47.912Z,101036.59
2022-08-03T04:56:17.772Z,101030.66
2022-08-03T04:58:47.884Z,101041.59
2022-08-03T05:01:20.474Z,101036.50
2022-08-03T05:03:50.531Z,101037.88
2022-08-03T05:06:25.094Z,101034.47
2022-08-03T05:08:55.223Z,101041.03
2022-08-03T05:11:26.296Z,101043.75
2022-08-03T05:13:56.238Z,101041.34
2022-08-03T05:16:26.035Z,101040.59
2022-08-03T05:18:55.903Z,101036.94
2022-08-03T05:21:41.738Z,101041.03
2022-08-03T05:24:19.185Z,101041.66
2022-08-03T05:26:49.031Z,101043.88
2022-08-03T05:29:18.941Z,101043.97
2022-08-03T05:31:48.739Z,101040.25
2022-08-03T05:34:18.615Z,101041.97
2022-08-03T05:36:51.065Z,101042.59
2022-08-03T05:39:20.946Z,101047.59
2022-08-03T05:41:50.728Z,101049.81
2022-08-03T05:44:20.589Z,101053.19
2022-08-03T05:46:50.749Z,101052.16
2022-08-03T05:49:20.782Z,101055.47
2022-08-03T05:52:00.098Z,101054.47
2022-08-03T05:54:53.836Z,101056.72
2022-08-03T05:57:27.629Z,101049.75
2022-08-03T05:59:58.836Z,101049.34
2022-08-03T06:02:28.943Z,101049.94
2022-08-03T06:04:59.231Z,101056.81
2022-08-03T06:07:32.053Z,101053.63
2022-08-03T06:10:35.857Z,101052.16
2022-08-03T06:12:53.013Z,101053.56
2022-08-03T06:15:23.913Z,101058.78
2022-08-03T06:18:01.467Z,101052.63
2022-08-03T06:20:32.241Z,101051.56
2022-08-03T06:23:04.874Z,101054.66
2022-08-03T06:25:37.454Z,101040.31
2022-08-03T06:28:19.087Z,101046.91
2022-08-03T06:30:58.984Z,101045.34
2022-08-03T06:34:30.197Z,101052.13
2022-08-03T06:36:18.970Z,101050.78
2022-08-03T06:38:51.569Z,101056.25
2022-08-03T06:41:21.382Z,101054.97
2022-08-03T06:44:03.230Z,101050.34
2022-08-03T06:46:34.235Z,101047.94
2022-08-03T06:49:04.322Z,101055.59
2022-08-03T06:52:03.966Z,101047.19
2022-08-03T06:54:27.137Z,101048.38
2022-08-03T06:56:57.699Z,101049.25
2022-08-03T07:00:07.495Z,101050.94
2022-08-03T07:02:19.251Z,101052.09
2022-08-03T07:04:52.595Z,101051.28
2022-08-03T07:07:22.573Z,101056.72
2022-08-03T07:09:56.577Z,101052.94
2022-08-03T07:12:29.661Z,101056.22
2022-08-03T07:15:03.579Z,101055.41
2022-08-03T07:17:36.277Z,101054.31
2022-08-03T07:20:09.580Z,101052.41
2022-08-03T07:22:39.500Z,101051.38
2022-08-03T07:25:12.883Z,101051.63
2022-08-03T07:27:51.420Z,101048.09
2022-08-03T07:30:21.669Z,101053.88
2022-08-03T07:32:51.741Z,101050.59
2022-08-03T07:35:24.402Z,101055.22
2022-08-03T07:37:55.333Z,101051.69
2022-08-03T07:40:31.885Z,101055.50
2022-08-03T07:43:03.434Z,101051.16
2022-08-03T07:45:34.365Z,101055.00
2022-08-03T07:48:07.587Z,101053.09
2022-08-03T07:50:41.592Z,101058.53
2022-08-03T07:53:11.574Z,101059.63
2022-08-03T07:55:44.181Z,101055.00
2022-08-03T07:58:19.197Z,101058.53
2022-08-03T08:00:53.307Z,101066.47
2022-08-03T08:03:23.597Z,101059.09
2022-08-03T08:05:53.682Z,101051.13
2022-08-03T08:08:23.848Z,101056.84
2022-08-03T08:10:58.636Z,101054.13
2022-08-03T08:13:28.826Z,101046.50
2022-08-03T08:15:58.771Z,101053.06
2022-08-03T08:18:29.637Z,101055.50
2022-08-03T08:21:01.602Z,101059.03
2022-08-03T08:23:42.336Z,101047.22
2022-08-03T08:26:16.496Z,101052.09
2022-08-03T08:28:46.342Z,101055.09
2022-08-03T08:31:16.282Z,101052.91
2022-08-03T08:34:03.770Z,101048.22
2022-08-03T08:36:35.251Z,101043.84
2022-08-03T08:39:05.282Z,101054.47
2022-08-03T08:41:37.888Z,101051.25
2022-08-03T08:44:15.725Z,101054.22
2022-08-03T08:46:46.848Z,101053.91
2022-08-03T08:49:21.392Z,101043.47
2022-08-03T08:52:00.484Z,101057.66
2022-08-03T08:54:34.209Z,101053.22
2022-08-03T08:57:26.613Z,101047.69
2022-08-03T09:00:02.298Z,101047.66
2022-08-03T09:02:34.358Z,101050.91
2022-08-03T09:05:07.540Z,101038.56
2022-08-03T09:07:38.153Z,101042.94
2022-08-03T09:10:13.318Z,101036.84
2022-08-03T09:12:49.563Z,101040.88
2022-08-03T09:15:21.658Z,101043.56
2022-08-03T09:17:51.696Z,101042.56
2022-08-03T09:20:24.818Z,101045.44
2022-08-03T09:22:57.273Z,101040.19
2022-08-03T09:25:32.616Z,101038.22
2022-08-03T09:28:13.347Z,101043.31
2022-08-03T09:31:03.607Z,101027.50
2022-08-03T09:33:35.960Z,101028.66
2022-08-03T09:36:06.751Z,101024.69
2022-08-03T09:38:37.448Z,101026.50
2022-08-03T09:41:21.033Z,101025.78
2022-08-03T09:43:57.074Z,101024.44
2022-08-03T09:46:28.558Z,101019.00
2022-08-03T09:49:12.183Z,101026.19
2022-08-03T09:52:32.934Z,101027.50
2022-08-03T09:54:34.344Z,101026.25
2022-08-03T09:57:05.322Z,101026.69
2022-08-03T09:59:41.204Z,101026.66
2022-08-03T10:02:24.434Z,101024.06
2022-08-03T10:04:55.436Z,101020.53
2022-08-03T10:07:27.394Z,101023.16
2022-08-03T10:10:30.916Z,101012.69
2022-08-03T10:12:49.297Z,101015.94
2022-08-03T10:16:23.237Z,101012.91
2022-08-03T10:18:26.467Z,101019.25
2022-08-03T10:20:58.183Z,101012.78
2022-08-03T10:23:33.167Z,101010.34
2022-08-03T10:26:06.772Z,101000.16
2022-08-03T10:28:44.963Z,101003.94
2022-08-03T10:31:21.199Z,101012.47
2022-08-03T10:33:54.851Z,101008.75
2022-08-03T10:36:26.795Z,100996.72
2022-08-03T10:38:59.066Z,100996.59
2022-08-03T10:41:33.997Z,100999.97
2022-08-03T10:44:08.527Z,100998.53
2022-08-03T10:46:44.919Z,100993.56
2022-08-03T10:49:31.836Z,100996.50
2022-08-03T10:52:12.753Z,101000.28
2022-08-03T10:55:10.007Z,100993.72
2022-08-03T10:57:58.804Z,100983.94
2022-08-03T11:00:30.728Z,100987.50
2022-08-03T11:03:12.003Z,100974.97
2022-08-03T11:05:44.124Z,100980.16
2022-08-03T11:08:31.911Z,100984.44
2022-08-03T11:11:04.773Z,100976.78
2022-08-03T11:13:34.831Z,100988.03
2022-08-03T11:16:22.375Z,100980.28
2022-08-03T11:19:05.907Z,100971.09
2022-08-03T11:21:57.956Z,100973.84
2022-08-03T11:25:09.587Z,100968.97
2022-08-03T11:28:29.325Z,100961.34
2022-08-03T11:31:51.892Z,100957.81
2022-08-03T11:34:24.839Z,100963.03
2022-08-03T11:37:31.407Z,100962.03
2022-08-03T11:40:03.612Z,100961.28
2022-08-03T11:42:45.243Z,100961.91
2022-08-03T11:45:15.721Z,100950.47
2022-08-03T11:47:50.098Z,100957.31
2022-08-03T11:50:24.533Z,100949.25
2022-08-03T11:52:54.493Z,100947.19
2022-08-03T11:55:27.841Z,100958.09
2022-08-03T11:59:15.241Z,100955.22
2022-08-03T12:00:52.785Z,100952.59
2022-08-03T12:03:23.809Z,100953.81
2022-08-03T12:05:57.048Z,100951.56
2022-08-03T12:08:34.947Z,100953.09
2022-08-03T12:11:07.372Z,100955.09
2022-08-03T12:14:44.394Z,100951.53
2022-08-03T12:16:34.980Z,100947.25
2022-08-03T12:19:06.967Z,100944.50
2022-08-03T12:21:56.615Z,100947.47
2022-08-03T12:24:29.567Z,100949.31
2022-08-03T12:26:59.979Z,100946.22
2022-08-03T12:29:30.152Z,100937.28
2022-08-03T12:32:00.157Z,100934.53
2022-08-03T12:34:51.169Z,100930.66
2022-08-03T12:37:25.971Z,100932.47
2022-08-03T12:40:01.699Z,100934.41
2022-08-03T12:42:35.115Z,100929.72
2022-08-03T12:45:23.566Z,100916.47
2022-08-03T12:47:55.508Z,100918.78
2022-08-03T12:50:32.986Z,100923.78
2022-08-03T12:53:09.021Z,100919.16
2022-08-03T12:55:57.753Z,100920.38
2022-08-03T12:58:36.246Z,100921.69
2022-08-03T13:01:09.797Z,100921.78
2022-08-03T13:03:49.823Z,100911.03
2022-08-03T13:06:22.598Z,100908.97
2022-08-03T13:09:07.595Z,100918.16
2022-08-03T13:11:55.427Z,100911.22
2022-08-03T13:14:27.864Z,100916.63
2022-08-03T13:16:57.706Z,100910.03
2022-08-03T13:19:27.668Z,100907.47
2022-08-03T13:22:03.450Z,100903.28
2022-08-03T13:24:37.364Z,100911.53
2022-08-03T13:28:13.769Z,100908.16
2022-08-03T13:29:57.693Z,100907.53
2022-08-03T13:32:27.816Z,100905.81
2022-08-03T13:34:57.717Z,100897.56
2022-08-03T13:37:27.988Z,100889.41
2022-08-03T13:40:02.561Z,100894.53
2022-08-03T13:42:34.426Z,100883.53
2022-08-03T13:45:05.246Z,100895.34
2022-08-03T13:47:35.252Z,100893.72
2022-08-03T13:50:05.202Z,100883.84
2022-08-03T13:52:37.215Z,100876.72
2022-08-03T13:55:11.029Z,100878.16
2022-08-03T13:58:04.730Z,100887.22
2022-08-03T14:00:31.039Z,100882.63
2022-08-03T14:03:09.203Z,100879.88
2022-08-03T14:05:43.529Z,100875.81
2022-08-03T14:08:14.933Z,100875.50
2022-08-03T14:10:48.221Z,100883.75
2022-08-03T14:13:18.368Z,100877.97
2022-08-03T14:15:50.107Z,100862.28
2022-08-03T14:18:28.322Z,100865.84
2022-08-03T14:21:05.509Z,100864.53
2022-08-03T14:23:36.917Z,100861.34
2022-08-03T14:26:10.169Z,100861.34
2022-08-03T14:28:40.302Z,100866.34
2022-08-03T14:32:08.994Z,100858.19
2022-08-03T14:34:00.700Z,100850.03
2022-08-03T14:36:30.592Z,100859.72
2022-08-03T14:39:02.958Z,100850.16
2022-08-03T14:41:35.504Z,100848.53
2022-08-03T14:44:06.000Z,100849.53
2022-08-03T14:46:35.874Z,100856.03
2022-08-03T14:50:32.313Z,100855.66
2022-08-03T14:51:55.605Z,100851.16
2022-08-03T14:54:25.521Z,100849.44
2022-08-03T14:56:58.960Z,100843.63
2022-08-03T14:59:29.187Z,100842.41
2022-08-03T15:02:23.834Z,100845.88
2022-08-03T15:04:54.225Z,100852.63
2022-08-03T15:07:24.217Z,100844.38
2022-08-03T15:09:54.898Z,100838.38
2022-08-03T15:12:28.708Z,100834.19
2022-08-03T15:14:58.545Z,100838.25
2022-08-03T15:17:28.426Z,100831.53
2022-08-03T15:20:03.628Z,100826.25
2022-08-03T15:22:47.124Z,100826.75
2022-08-03T15:26:29.395Z,100828.19
2022-08-03T15:28:09.583Z,100820.66
2022-08-03T15:30:39.523Z,100821.66
2022-08-03T15:33:09.375Z,100824.63
2022-08-03T15:35:39.244Z,100828.28
2022-08-03T15:38:09.848Z,100822.28
2022-08-03T15:40:40.036Z,100820.44
2022-08-03T15:43:12.577Z,100815.34
2022-08-03T15:45:43.042Z,100817.78
2022-08-03T15:48:12.893Z,100802.22
2022-08-03T15:50:43.838Z,100819.00
2022-08-03T15:53:13.805Z,100814.31
2022-08-03T15:55:43.869Z,100816.25
2022-08-03T15:59:04.411Z,100815.72
2022-08-03T16:01:07.612Z,100809.81
2022-08-03T16:03:38.446Z,100810.84
2022-08-03T16:06:10.360Z,100813.06
2022-08-03T16:08:40.316Z,100804.84
2022-08-03T16:11:10.309Z,100808.41
2022-08-03T16:14:13.022Z,100810.53
2022-08-03T16:16:32.714Z,100805.03
2022-08-03T16:19:05.460Z,100799.66
2022-08-03T16:21:40.299Z,100809.63
2022-08-03T16:24:24.243Z,100797.63
2022-08-03T16:26:57.991Z,100805.84
2022-08-03T16:29:33.102Z,100795.19
2022-08-03T16:32:09.392Z,100794.78
2022-08-03T16:34:40.437Z,100797.22
2022-08-03T16:37:37.202Z,100793.03
2022-08-03T16:40:01.444Z,100792.34
2022-08-03T16:42:31.439Z,100801.38
2022-08-03T16:45:03.996Z,100799.25
2022-08-03T16:47:34.011Z,100801.06
2022-08-03T16:50:11.683Z,100795.69
2022-08-03T16:52:47.283Z,100793.16
2022-08-03T16:55:49.173Z,100795.38
2022-08-03T16:58:12.536Z,100801.06
2022-08-03T17:00:46.286Z,100792.94
2022-08-03T17:03:20.589Z,100793.56
2022-08-03T17:05:54.095Z,100798.03
2022-08-03T17:08:29.509Z,100801.88
2022-08-03T17:11:00.135Z,100800.88
2022-08-03T17:13:39.853Z,100791.31
2022-08-03T17:16:15.351Z,100800.34
2022-08-03T17:18:54.307Z,100794.66
2022-08-03T17:21:29.582Z,100798.53
2022-08-03T17:24:12.503Z,100808.19
2022-08-03T17:26:45.184Z,100806.28
2022-08-03T17:29:18.314Z,100807.34
2022-08-03T17:31:52.851Z,100807.56
2022-08-03T17:34:26.355Z,100805.94
2022-08-03T17:37:05.757Z,100807.59
2022-08-03T17:39:57.690Z,100804.66
2022-08-03T17:42:30.769Z,100811.75
2022-08-03T17:45:03.947Z,100812.66
2022-08-03T17:47:42.015Z,100809.41
2022-08-03T17:50:40.379Z,100809.72
2022-08-03T17:53:23.434Z,100815.81
2022-08-03T17:56:04.089Z,100818.63
2022-08-03T17:58:54.774Z,100819.25
2022-08-03T18:02:03.251Z,100817.31
2022-08-03T18:04:36.658Z,100810.50
2022-08-03T18:07:15.993Z,100816.59
2022-08-03T18:10:03.668Z,100819.94
2022-08-03T18:12:51.715Z,100809.84
2022-08-03T18:15:27.715Z,100820.00
2022-08-03T18:20:55.035Z,100818.44
2022-08-03T18:23:37.075Z,100822.06
2022-08-03T18:26:13.745Z,100818.81
2022-08-03T18:28:46.090Z,100815.88
2022-08-03T18:32:00.512Z,100819.47
2022-08-03T18:34:19.400Z,100821.41
2022-08-03T18:37:07.545Z,100818.13
2022-08-03T18:39:52.651Z,100817.69
2022-08-03T18:42:25.613Z,100818.22
2022-08-03T18:44:57.073Z,100819.94
2022-08-03T18:47:50.617Z,100825.47
2022-08-03T18:50:31.023Z,100828.50
2022-08-03T18:53:16.231Z,100825.53
2022-08-03T18:56:02.367Z,100821.47
2022-08-03T18:58:39.901Z,100820.94
2022-08-03T19:01:57.908Z,100819.91
2022-08-03T19:04:12.482Z,100827.31
2022-08-03T19:06:46.301Z,100826.28
2022-08-03T19:09:31.978Z,100829.91
2022-08-03T19:12:13.241Z,100826.94
2022-08-03T19:15:03.939Z,100824.50
2022-08-03T19:17:38.381Z,100828.34
2022-08-03T19:20:11.246Z,100832.47
2022-08-03T19:22:45.868Z,100831.94
2022-08-03T19:25:20.171Z,100836.06
2022-08-03T19:28:07.383Z,100835.56
2022-08-03T19:30:39.977Z,100835.81
2022-08-03T19:33:11.689Z,100836.41
2022-08-03T19:35:51.737Z,100834.78
2022-08-03T19:38:28.465Z,100833.16
2022-08-03T19:41:06.456Z,100837.28
2022-08-03T19:43:52.604Z,100837.88
2022-08-03T19:46:27.742Z,100839.00
2022-08-03T19:49:04.783Z,100841.50
2022-08-03T19:52:01.864Z,100835.50
2022-08-03T19:54:53.017Z,100838.81
2022-08-03T19:57:28.982Z,100838.28
2022-08-03T20:00:03.866Z,100829.84
2022-08-03T20:02:35.614Z,100835.63
2022-08-03T20:05:05.781Z,100840.56
2022-08-03T20:07:47.949Z,100845.53
2022-08-03T20:10:19.450Z,100834.06
2022-08-03T20:12:52.815Z,100840.91
2022-08-03T20:15:31.535Z,100837.34
2022-08-03T20:18:02.876Z,100834.38
2022-08-03T20:20:38.284Z,100825.13
2022-08-03T20:23:15.526Z,100824.84
2022-08-03T20:25:57.574Z,100825.97
2022-08-03T20:28:35.650Z,100821.06
2022-08-03T20:31:32.404Z,100824.09
2022-08-03T20:34:09.708Z,100826.31
2022-08-03T20:36:40.121Z,100835.09
2022-08-03T20:39:10.481Z,100825.84
2022-08-03T20:41:43.420Z,100822.56
2022-08-03T20:44:15.895Z,100821.81
2022-08-03T20:46:53.153Z,100829.50
2022-08-03T20:49:31.439Z,100819.91
2022-08-03T20:52:31.664Z,100826.50
2022-08-03T20:55:02.282Z,100834.16
2022-08-03T20:57:49.163Z,100824.63
2022-08-03T21:00:24.271Z,100827.41
2022-08-03T21:02:57.837Z,100831.25
2022-08-03T21:05:47.932Z,100838.91
2022-08-03T21:08:19.062Z,100836.75
2022-08-03T21:10:52.882Z,100836.00
2022-08-03T21:13:06.034Z,100812.97
2022-08-03T21:13:27.251Z,100840.94
2022-08-03T21:16:14.188Z,100841.75
2022-08-03T21:18:49.055Z,100833.56
2022-08-03T21:21:22.710Z,100836.88
2022-08-03T21:23:55.291Z,100843.72
2022-08-03T21:26:27.099Z,100845.38
2022-08-03T21:29:00.660Z,100833.91
2022-08-03T21:31:33.515Z,100843.50
2022-08-03T21:34:08.025Z,100839.13
2022-08-03T21:36:39.307Z,100841.34
2022-08-03T21:39:11.400Z,100832.88
2022-08-03T21:41:42.708Z,100837.00
2022-08-03T21:44:12.669Z,100837.56
2022-08-03T21:46:45.466Z,100830.75
2022-08-03T21:50:04.434Z,100837.09
2022-08-03T21:52:08.225Z,100840.91
2022-08-03T21:54:40.089Z,100836.03
2022-08-03T21:57:20.635Z,100833.84
2022-08-03T21:59:55.931Z,100828.97
2022-08-03T22:02:32.044Z,100832.22
2022-08-03T22:05:04.888Z,100835.25
2022-08-03T22:07:35.765Z,100832.78
2022-08-03T22:10:10.042Z,100831.16
2022-08-03T22:12:39.990Z,100834.72
2022-08-03T22:15:12.607Z,100832.84
2022-08-03T22:17:53.595Z,100836.66
2022-08-03T22:20:26.020Z,100836.66
2022-08-03T22:22:57.788Z,100835.59
2022-08-03T22:25:31.353Z,100850.38
2022-08-03T22:28:03.002Z,100847.66
2022-08-03T22:30:33.252Z,100850.91
2022-08-03T22:33:11.260Z,100855.84
2022-08-03T22:35:47.517Z,100843.81
2022-08-03T22:38:18.903Z,100846.84
2022-08-03T22:40:51.437Z,100849.31
2022-08-03T22:43:25.413Z,100846.59
2022-08-03T22:46:10.138Z,100848.50
2022-08-03T22:48:44.920Z,100858.31
2022-08-03T22:51:14.861Z,100852.06
2022-08-03T22:53:47.466Z,100858.06
2022-08-03T22:56:17.535Z,100850.16
2022-08-03T22:58:47.401Z,100854.00
2022-08-03T23:01:22.827Z,100852.06
2022-08-03T23:04:02.370Z,100848.28
2022-08-03T23:06:37.312Z,100846.91
2022-08-03T23:09:10.826Z,100852.66
2022-08-03T23:11:45.277Z,100852.94
2022-08-03T23:14:18.306Z,100850.47
2022-08-03T23:16:49.919Z,100851.03
2022-08-03T23:19:25.400Z,100854.88
2022-08-03T23:22:02.702Z,100851.59
2022-08-03T23:24:36.720Z,100849.44
2022-08-03T23:27:07.657Z,100850.50
2022-08-03T23:29:39.302Z,100846.69
2022-08-03T23:32:10.358Z,100850.53
2022-08-03T23:34:57.410Z,100846.72
2022-08-03T23:37:28.289Z,100851.34
2022-08-03T23:40:00.023Z,100844.50
2022-08-03T23:42:30.341Z,100842.06
2022-08-03T23:45:05.701Z,100843.97
2022-08-03T23:47:46.519Z,100834.16
2022-08-03T23:50:21.378Z,100843.72
2022-08-03T23:53:02.472Z,100848.91
2022-08-03T23:55:46.735Z,100841.81
2022-08-03T23:58:33.213Z,100838.81
